sensor_id;sensor_type;location;lat;lon;timestamp;P1;durP1;ratioP1;P2;durP2;ratioP2
53694;SDS011;39588;51.124;7.190;2023-06-22T00:00:52;3.63;;;2.60;;
53694;SDS011;39588;51.124;7.190;2023-06-22T00:03:18;3.83;;;2.40;;
53694;SDS011;39588;51.124;7.190;2023-06-22T00:05:45;4.10;;;2.67;;
53694;SDS011;39588;51.124;7.190;2023-06-22T00:08:11;8.23;;;2.70;;
53694;SDS011;39588;51.124;7.190;2023-06-22T00:10:37;3.60;;;2.43;;
53694;SDS011;39588;51.124;7.190;2023-06-22T00:13:04;3.50;;;2.60;;
53694;SDS011;39588;51.124;7.190;2023-06-22T00:15:30;2.17;;;2.00;;
53694;SDS011;39588;51.124;7.190;2023-06-22T00:17:56;3.20;;;2.90;;
53694;SDS011;39588;51.124;7.190;2023-06-22T00:20:22;3.53;;;2.73;;
53694;SDS011;39588;51.124;7.190;2023-06-22T00:22:52;3.10;;;2.67;;
53694;SDS011;39588;51.124;7.190;2023-06-22T00:25:25;3.57;;;2.30;;
53694;SDS011;39588;51.124;7.190;2023-06-22T00:27:50;4.57;;;2.60;;
53694;SDS011;39588;51.124;7.190;2023-06-22T00:30:16;2.03;;;1.93;;
53694;SDS011;39588;51.124;7.190;2023-06-22T00:32:43;3.37;;;2.40;;
53694;SDS011;39588;51.124;7.190;2023-06-22T00:35:09;3.27;;;2.27;;
53694;SDS011;39588;51.124;7.190;2023-06-22T00:37:35;4.43;;;2.37;;
53694;SDS011;39588;51.124;7.190;2023-06-22T00:40:02;4.23;;;2.27;;
53694;SDS011;39588;51.124;7.190;2023-06-22T00:42:29;2.43;;;2.20;;
53694;SDS011;39588;51.124;7.190;2023-06-22T00:44:55;2.40;;;1.87;;
53694;SDS011;39588;51.124;7.190;2023-06-22T00:47:21;3.70;;;2.50;;
53694;SDS011;39588;51.124;7.190;2023-06-22T00:49:47;2.60;;;1.93;;
53694;SDS011;39588;51.124;7.190;2023-06-22T00:52:18;4.10;;;1.80;;
53694;SDS011;39588;51.124;7.190;2023-06-22T00:54:50;1.80;;;1.70;;
53694;SDS011;39588;51.124;7.190;2023-06-22T00:57:17;5.77;;;2.40;;
53694;SDS011;39588;51.124;7.190;2023-06-22T00:59:43;2.83;;;2.00;;
53694;SDS011;39588;51.124;7.190;2023-06-22T01:02:10;3.70;;;2.30;;
53694;SDS011;39588;51.124;7.190;2023-06-22T01:04:37;3.87;;;2.20;;
53694;SDS011;39588;51.124;7.190;2023-06-22T01:10:03;2.17;;;1.97;;
53694;SDS011;39588;51.124;7.190;2023-06-22T01:13:45;5.33;;;1.93;;
53694;SDS011;39588;51.124;7.190;2023-06-22T01:15:44;1.87;;;1.70;;
53694;SDS011;39588;51.124;7.190;2023-06-22T01:18:14;2.67;;;1.93;;
53694;SDS011;39588;51.124;7.190;2023-06-22T01:20:43;2.30;;;2.10;;
53694;SDS011;39588;51.124;7.190;2023-06-22T01:28:50;2.60;;;2.00;;
53694;SDS011;39588;51.124;7.190;2023-06-22T01:31:20;3.43;;;1.77;;
53694;SDS011;39588;51.124;7.190;2023-06-22T01:33:49;2.07;;;1.77;;
53694;SDS011;39588;51.124;7.190;2023-06-22T01:36:18;2.40;;;2.20;;
53694;SDS011;39588;51.124;7.190;2023-06-22T01:38:46;4.70;;;2.53;;
53694;SDS011;39588;51.124;7.190;2023-06-22T01:41:13;2.47;;;2.00;;
53694;SDS011;39588;51.124;7.190;2023-06-22T01:43:39;3.17;;;2.00;;
53694;SDS011;39588;51.124;7.190;2023-06-22T01:46:06;2.03;;;1.80;;
53694;SDS011;39588;51.124;7.190;2023-06-22T01:48:32;2.50;;;2.00;;
53694;SDS011;39588;51.124;7.190;2023-06-22T01:50:59;4.10;;;2.13;;
53694;SDS011;39588;51.124;7.190;2023-06-22T01:53:25;4.33;;;2.30;;
53694;SDS011;39588;51.124;7.190;2023-06-22T01:55:51;3.23;;;1.90;;
53694;SDS011;39588;51.124;7.190;2023-06-22T01:58:17;2.20;;;2.00;;
53694;SDS011;39588;51.124;7.190;2023-06-22T02:00:49;2.37;;;1.93;;
53694;SDS011;39588;51.124;7.190;2023-06-22T02:03:19;3.27;;;2.43;;
53694;SDS011;39588;51.124;7.190;2023-06-22T02:05:52;1.77;;;1.67;;
53694;SDS011;39588;51.124;7.190;2023-06-22T02:08:24;2.30;;;2.10;;
53694;SDS011;39588;51.124;7.190;2023-06-22T02:10:53;1.90;;;1.70;;
53694;SDS011;39588;51.124;7.190;2023-06-22T02:13:20;2.93;;;1.90;;
53694;SDS011;39588;51.124;7.190;2023-06-22T02:15:46;3.43;;;2.17;;
53694;SDS011;39588;51.124;7.190;2023-06-22T02:18:13;2.20;;;1.87;;
53694;SDS011;39588;51.124;7.190;2023-06-22T02:20:39;1.67;;;1.57;;
53694;SDS011;39588;51.124;7.190;2023-06-22T02:23:05;2.53;;;2.33;;
53694;SDS011;39588;51.124;7.190;2023-06-22T02:25:32;2.57;;;2.37;;
53694;SDS011;39588;51.124;7.190;2023-06-22T02:27:59;2.27;;;2.07;;
53694;SDS011;39588;51.124;7.190;2023-06-22T02:30:25;1.93;;;1.83;;
53694;SDS011;39588;51.124;7.190;2023-06-22T02:32:50;2.53;;;2.30;;
53694;SDS011;39588;51.124;7.190;2023-06-22T02:35:24;8.33;;;2.20;;
53694;SDS011;39588;51.124;7.190;2023-06-22T02:37:51;2.47;;;2.13;;
53694;SDS011;39588;51.124;7.190;2023-06-22T02:40:17;2.07;;;1.97;;
53694;SDS011;39588;51.124;7.190;2023-06-22T02:42:43;2.10;;;2.00;;
53694;SDS011;39588;51.124;7.190;2023-06-22T02:45:08;2.67;;;1.83;;
53694;SDS011;39588;51.124;7.190;2023-06-22T02:47:34;2.30;;;2.10;;
53694;SDS011;39588;51.124;7.190;2023-06-22T02:50:00;3.37;;;2.30;;
53694;SDS011;39588;51.124;7.190;2023-06-22T02:52:27;4.97;;;2.30;;
53694;SDS011;39588;51.124;7.190;2023-06-22T02:54:52;2.43;;;2.23;;
53694;SDS011;39588;51.124;7.190;2023-06-22T02:57:18;3.00;;;2.00;;
53694;SDS011;39588;51.124;7.190;2023-06-22T02:59:45;3.13;;;2.30;;
53694;SDS011;39588;51.124;7.190;2023-06-22T03:02:11;2.17;;;1.97;;
53694;SDS011;39588;51.124;7.190;2023-06-22T03:04:37;2.03;;;1.93;;
53694;SDS011;39588;51.124;7.190;2023-06-22T03:07:03;2.33;;;2.07;;
53694;SDS011;39588;51.124;7.190;2023-06-22T03:09:29;3.17;;;2.50;;
53694;SDS011;39588;51.124;7.190;2023-06-22T03:11:55;1.80;;;1.60;;
53694;SDS011;39588;51.124;7.190;2023-06-22T03:14:21;2.50;;;2.17;;
53694;SDS011;39588;51.124;7.190;2023-06-22T03:16:47;5.90;;;2.20;;
53694;SDS011;39588;51.124;7.190;2023-06-22T03:19:13;2.50;;;2.27;;
53694;SDS011;39588;51.124;7.190;2023-06-22T03:21:40;2.80;;;2.10;;
53694;SDS011;39588;51.124;7.190;2023-06-22T03:24:05;2.23;;;2.03;;
53694;SDS011;39588;51.124;7.190;2023-06-22T03:26:31;3.03;;;2.10;;
53694;SDS011;39588;51.124;7.190;2023-06-22T03:28:57;3.87;;;2.37;;
53694;SDS011;39588;51.124;7.190;2023-06-22T03:31:23;6.67;;;2.60;;
53694;SDS011;39588;51.124;7.190;2023-06-22T03:33:49;3.80;;;2.70;;
53694;SDS011;39588;51.124;7.190;2023-06-22T03:36:16;8.20;;;2.70;;
53694;SDS011;39588;51.124;7.190;2023-06-22T03:38:46;3.07;;;2.37;;
53694;SDS011;39588;51.124;7.190;2023-06-22T03:41:12;2.97;;;2.30;;
53694;SDS011;39588;51.124;7.190;2023-06-22T03:43:38;2.87;;;2.57;;
53694;SDS011;39588;51.124;7.190;2023-06-22T03:46:04;2.90;;;2.30;;
53694;SDS011;39588;51.124;7.190;2023-06-22T03:48:30;2.43;;;2.23;;
53694;SDS011;39588;51.124;7.190;2023-06-22T03:50:59;3.57;;;2.50;;
53694;SDS011;39588;51.124;7.190;2023-06-22T03:53:25;2.73;;;2.50;;
53694;SDS011;39588;51.124;7.190;2023-06-22T03:55:51;2.60;;;2.37;;
53694;SDS011;39588;51.124;7.190;2023-06-22T03:58:17;3.93;;;2.50;;
53694;SDS011;39588;51.124;7.190;2023-06-22T04:00:52;3.03;;;2.10;;
53694;SDS011;39588;51.124;7.190;2023-06-22T04:03:18;3.70;;;2.43;;
53694;SDS011;39588;51.124;7.190;2023-06-22T04:05:44;3.10;;;2.60;;
53694;SDS011;39588;51.124;7.190;2023-06-22T04:08:10;4.10;;;2.80;;
53694;SDS011;39588;51.124;7.190;2023-06-22T04:10:37;4.40;;;2.73;;
53694;SDS011;39588;51.124;7.190;2023-06-22T04:13:02;3.30;;;2.27;;
53694;SDS011;39588;51.124;7.190;2023-06-22T04:15:28;15.70;;;3.00;;
53694;SDS011;39588;51.124;7.190;2023-06-22T04:17:54;4.43;;;2.90;;
53694;SDS011;39588;51.124;7.190;2023-06-22T04:20:21;1.93;;;1.83;;
53694;SDS011;39588;51.124;7.190;2023-06-22T04:22:46;2.87;;;2.53;;
53694;SDS011;39588;51.124;7.190;2023-06-22T04:25:12;5.20;;;2.93;;
53694;SDS011;39588;51.124;7.190;2023-06-22T04:27:38;8.10;;;2.77;;
53694;SDS011;39588;51.124;7.190;2023-06-22T04:30:06;4.30;;;3.10;;
53694;SDS011;39588;51.124;7.190;2023-06-22T04:32:35;9.47;;;3.13;;
53694;SDS011;39588;51.124;7.190;2023-06-22T04:35:02;4.10;;;2.90;;
53694;SDS011;39588;51.124;7.190;2023-06-22T04:37:29;4.60;;;3.00;;
53694;SDS011;39588;51.124;7.190;2023-06-22T04:39:55;3.60;;;3.30;;
53694;SDS011;39588;51.124;7.190;2023-06-22T04:42:21;4.33;;;3.27;;
53694;SDS011;39588;51.124;7.190;2023-06-22T04:44:46;4.47;;;3.53;;
53694;SDS011;39588;51.124;7.190;2023-06-22T04:47:12;4.93;;;3.77;;
53694;SDS011;39588;51.124;7.190;2023-06-22T04:49:38;3.87;;;3.10;;
53694;SDS011;39588;51.124;7.190;2023-06-22T04:54:32;5.13;;;3.80;;
53694;SDS011;39588;51.124;7.190;2023-06-22T04:57:05;4.47;;;3.23;;
53694;SDS011;39588;51.124;7.190;2023-06-22T04:59:35;3.97;;;3.57;;
53694;SDS011;39588;51.124;7.190;2023-06-22T05:02:04;3.73;;;3.43;;
53694;SDS011;39588;51.124;7.190;2023-06-22T05:04:30;6.83;;;4.63;;
53694;SDS011;39588;51.124;7.190;2023-06-22T05:06:56;9.07;;;4.00;;
53694;SDS011;39588;51.124;7.190;2023-06-22T05:09:23;3.93;;;3.60;;
53694;SDS011;39588;51.124;7.190;2023-06-22T05:11:50;5.33;;;4.60;;
53694;SDS011;39588;51.124;7.190;2023-06-22T05:14:16;5.77;;;4.60;;
53694;SDS011;39588;51.124;7.190;2023-06-22T05:16:42;6.70;;;4.73;;
53694;SDS011;39588;51.124;7.190;2023-06-22T05:19:08;11.03;;;4.37;;
53694;SDS011;39588;51.124;7.190;2023-06-22T05:21:34;5.30;;;4.40;;
53694;SDS011;39588;51.124;7.190;2023-06-22T05:24:00;4.63;;;4.13;;
53694;SDS011;39588;51.124;7.190;2023-06-22T05:26:27;6.63;;;4.57;;
53694;SDS011;39588;51.124;7.190;2023-06-22T05:28:53;9.40;;;4.90;;
53694;SDS011;39588;51.124;7.190;2023-06-22T05:31:19;8.40;;;5.80;;
53694;SDS011;39588;51.124;7.190;2023-06-22T05:33:46;4.97;;;4.20;;
53694;SDS011;39588;51.124;7.190;2023-06-22T05:36:13;6.67;;;4.97;;
53694;SDS011;39588;51.124;7.190;2023-06-22T05:38:39;6.13;;;4.87;;
53694;SDS011;39588;51.124;7.190;2023-06-22T05:41:05;6.83;;;5.17;;
53694;SDS011;39588;51.124;7.190;2023-06-22T05:43:31;7.30;;;5.00;;
53694;SDS011;39588;51.124;7.190;2023-06-22T05:45:57;5.43;;;3.93;;
53694;SDS011;39588;51.124;7.190;2023-06-22T05:48:23;7.43;;;4.80;;
53694;SDS011;39588;51.124;7.190;2023-06-22T05:50:49;6.23;;;4.77;;
53694;SDS011;39588;51.124;7.190;2023-06-22T05:53:15;6.70;;;4.80;;
53694;SDS011;39588;51.124;7.190;2023-06-22T05:55:41;5.30;;;4.27;;
53694;SDS011;39588;51.124;7.190;2023-06-22T05:58:07;5.70;;;4.20;;
53694;SDS011;39588;51.124;7.190;2023-06-22T06:00:33;5.07;;;4.00;;
53694;SDS011;39588;51.124;7.190;2023-06-22T06:03:00;7.57;;;4.43;;
53694;SDS011;39588;51.124;7.190;2023-06-22T06:05:32;10.93;;;4.80;;
53694;SDS011;39588;51.124;7.190;2023-06-22T06:08:02;6.83;;;4.23;;
53694;SDS011;39588;51.124;7.190;2023-06-22T06:10:32;5.93;;;4.00;;
53694;SDS011;39588;51.124;7.190;2023-06-22T06:12:58;9.10;;;4.90;;
53694;SDS011;39588;51.124;7.190;2023-06-22T06:15:27;5.37;;;4.57;;
53694;SDS011;39588;51.124;7.190;2023-06-22T06:17:53;5.33;;;4.83;;
53694;SDS011;39588;51.124;7.190;2023-06-22T06:20:19;6.50;;;4.83;;
53694;SDS011;39588;51.124;7.190;2023-06-22T06:22:46;5.87;;;4.40;;
53694;SDS011;39588;51.124;7.190;2023-06-22T06:25:13;6.53;;;4.47;;
53694;SDS011;39588;51.124;7.190;2023-06-22T06:27:44;9.30;;;4.40;;
53694;SDS011;39588;51.124;7.190;2023-06-22T06:30:11;5.20;;;4.70;;
53694;SDS011;39588;51.124;7.190;2023-06-22T06:32:38;5.87;;;4.40;;
53694;SDS011;39588;51.124;7.190;2023-06-22T06:35:05;5.97;;;4.47;;
53694;SDS011;39588;51.124;7.190;2023-06-22T06:37:36;6.63;;;4.60;;
53694;SDS011;39588;51.124;7.190;2023-06-22T06:40:06;5.30;;;4.47;;
53694;SDS011;39588;51.124;7.190;2023-06-22T06:42:36;6.23;;;4.37;;
53694;SDS011;39588;51.124;7.190;2023-06-22T06:45:15;5.20;;;4.57;;
53694;SDS011;39588;51.124;7.190;2023-06-22T06:47:42;5.83;;;4.70;;
53694;SDS011;39588;51.124;7.190;2023-06-22T06:50:08;6.87;;;5.10;;
53694;SDS011;39588;51.124;7.190;2023-06-22T06:52:34;5.50;;;4.90;;
53694;SDS011;39588;51.124;7.190;2023-06-22T06:55:00;5.17;;;4.40;;
53694;SDS011;39588;51.124;7.190;2023-06-22T06:57:26;7.93;;;4.00;;
53694;SDS011;39588;51.124;7.190;2023-06-22T06:59:55;7.60;;;4.37;;
53694;SDS011;39588;51.124;7.190;2023-06-22T07:02:22;6.40;;;4.60;;
53694;SDS011;39588;51.124;7.190;2023-06-22T07:04:48;4.80;;;4.30;;
53694;SDS011;39588;51.124;7.190;2023-06-22T07:07:13;4.60;;;4.10;;
53694;SDS011;39588;51.124;7.190;2023-06-22T07:09:39;5.23;;;4.30;;
53694;SDS011;39588;51.124;7.190;2023-06-22T07:12:05;7.97;;;4.70;;
53694;SDS011;39588;51.124;7.190;2023-06-22T07:14:31;5.80;;;4.40;;
53694;SDS011;39588;51.124;7.190;2023-06-22T07:16:57;5.57;;;4.10;;
53694;SDS011;39588;51.124;7.190;2023-06-22T07:19:27;12.83;;;4.63;;
53694;SDS011;39588;51.124;7.190;2023-06-22T07:21:55;5.03;;;4.20;;
53694;SDS011;39588;51.124;7.190;2023-06-22T07:24:21;4.60;;;4.20;;
53694;SDS011;39588;51.124;7.190;2023-06-22T07:26:48;4.73;;;4.00;;
53694;SDS011;39588;51.124;7.190;2023-06-22T07:29:15;4.37;;;3.97;;
53694;SDS011;39588;51.124;7.190;2023-06-22T07:31:47;5.27;;;4.57;;
53694;SDS011;39588;51.124;7.190;2023-06-22T07:34:14;7.97;;;4.73;;
53694;SDS011;39588;51.124;7.190;2023-06-22T07:36:40;4.60;;;4.10;;
53694;SDS011;39588;51.124;7.190;2023-06-22T07:39:06;5.83;;;4.73;;
53694;SDS011;39588;51.124;7.190;2023-06-22T07:41:32;4.27;;;3.63;;
53694;SDS011;39588;51.124;7.190;2023-06-22T07:43:57;7.93;;;3.83;;
53694;SDS011;39588;51.124;7.190;2023-06-22T07:46:23;3.67;;;3.37;;
53694;SDS011;39588;51.124;7.190;2023-06-22T07:48:49;13.70;;;3.93;;
53694;SDS011;39588;51.124;7.190;2023-06-22T07:51:15;5.47;;;4.40;;
53694;SDS011;39588;51.124;7.190;2023-06-22T07:53:41;5.70;;;4.03;;
53694;SDS011;39588;51.124;7.190;2023-06-22T07:56:10;5.53;;;3.93;;
53694;SDS011;39588;51.124;7.190;2023-06-22T07:58:36;5.23;;;3.93;;
53694;SDS011;39588;51.124;7.190;2023-06-22T08:01:01;4.40;;;3.33;;
53694;SDS011;39588;51.124;7.190;2023-06-22T08:03:28;5.00;;;3.83;;
53694;SDS011;39588;51.124;7.190;2023-06-22T08:05:54;5.33;;;3.80;;
53694;SDS011;39588;51.124;7.190;2023-06-22T08:08:20;4.87;;;3.63;;
53694;SDS011;39588;51.124;7.190;2023-06-22T08:10:46;5.77;;;4.17;;
53694;SDS011;39588;51.124;7.190;2023-06-22T08:13:13;3.60;;;2.83;;
53694;SDS011;39588;51.124;7.190;2023-06-22T08:15:38;3.47;;;3.17;;
53694;SDS011;39588;51.124;7.190;2023-06-22T08:18:05;3.80;;;3.20;;
53694;SDS011;39588;51.124;7.190;2023-06-22T08:20:30;4.50;;;3.60;;
53694;SDS011;39588;51.124;7.190;2023-06-22T08:22:57;3.67;;;3.37;;
53694;SDS011;39588;51.124;7.190;2023-06-22T08:25:25;3.70;;;3.40;;
53694;SDS011;39588;51.124;7.190;2023-06-22T08:27:51;3.57;;;3.13;;
53694;SDS011;39588;51.124;7.190;2023-06-22T08:30:17;3.33;;;3.03;;
53694;SDS011;39588;51.124;7.190;2023-06-22T08:32:43;3.63;;;3.33;;
53694;SDS011;39588;51.124;7.190;2023-06-22T08:35:09;4.30;;;3.40;;
53694;SDS011;39588;51.124;7.190;2023-06-22T08:37:36;4.30;;;3.27;;
53694;SDS011;39588;51.124;7.190;2023-06-22T08:40:04;3.43;;;3.10;;
53694;SDS011;39588;51.124;7.190;2023-06-22T08:42:34;4.07;;;2.60;;
53694;SDS011;39588;51.124;7.190;2023-06-22T08:45:00;3.67;;;3.13;;
53694;SDS011;39588;51.124;7.190;2023-06-22T08:47:27;4.07;;;2.90;;
53694;SDS011;39588;51.124;7.190;2023-06-22T08:49:53;6.63;;;3.00;;
53694;SDS011;39588;51.124;7.190;2023-06-22T08:52:18;4.27;;;3.20;;
53694;SDS011;39588;51.124;7.190;2023-06-22T08:54:45;5.00;;;3.60;;
53694;SDS011;39588;51.124;7.190;2023-06-22T08:57:11;5.30;;;3.80;;
53694;SDS011;39588;51.124;7.190;2023-06-22T08:59:37;3.77;;;3.40;;
53694;SDS011;39588;51.124;7.190;2023-06-22T09:02:02;17.00;;;3.20;;
53694;SDS011;39588;51.124;7.190;2023-06-22T09:04:28;3.83;;;3.40;;
53694;SDS011;39588;51.124;7.190;2023-06-22T09:06:54;4.43;;;4.03;;
53694;SDS011;39588;51.124;7.190;2023-06-22T09:09:21;8.67;;;4.07;;
53694;SDS011;39588;51.124;7.190;2023-06-22T09:11:47;6.60;;;4.73;;
53694;SDS011;39588;51.124;7.190;2023-06-22T09:14:13;4.40;;;3.60;;
53694;SDS011;39588;51.124;7.190;2023-06-22T09:16:38;4.50;;;4.00;;
53694;SDS011;39588;51.124;7.190;2023-06-22T09:19:05;5.43;;;3.70;;
53694;SDS011;39588;51.124;7.190;2023-06-22T09:21:31;5.07;;;4.00;;
53694;SDS011;39588;51.124;7.190;2023-06-22T09:23:57;5.20;;;3.70;;
53694;SDS011;39588;51.124;7.190;2023-06-22T09:26:23;6.20;;;3.97;;
53694;SDS011;39588;51.124;7.190;2023-06-22T09:28:49;4.37;;;3.40;;
53694;SDS011;39588;51.124;7.190;2023-06-22T09:31:15;4.13;;;3.37;;
53694;SDS011;39588;51.124;7.190;2023-06-22T09:33:41;5.30;;;3.70;;
53694;SDS011;39588;51.124;7.190;2023-06-22T09:36:07;7.00;;;4.03;;
53694;SDS011;39588;51.124;7.190;2023-06-22T09:38:36;3.50;;;3.17;;
53694;SDS011;39588;51.124;7.190;2023-06-22T09:41:03;4.20;;;3.73;;
53694;SDS011;39588;51.124;7.190;2023-06-22T09:43:29;3.57;;;2.93;;
53694;SDS011;39588;51.124;7.190;2023-06-22T09:45:56;3.83;;;3.40;;
53694;SDS011;39588;51.124;7.190;2023-06-22T09:48:22;3.83;;;3.30;;
53694;SDS011;39588;51.124;7.190;2023-06-22T09:50:48;8.07;;;3.20;;
53694;SDS011;39588;51.124;7.190;2023-06-22T09:53:14;4.13;;;3.40;;
53694;SDS011;39588;51.124;7.190;2023-06-22T09:55:40;4.30;;;3.63;;
53694;SDS011;39588;51.124;7.190;2023-06-22T09:58:06;3.73;;;3.03;;
53694;SDS011;39588;51.124;7.190;2023-06-22T10:00:32;5.20;;;3.90;;
53694;SDS011;39588;51.124;7.190;2023-06-22T10:02:57;3.47;;;3.10;;
53694;SDS011;39588;51.124;7.190;2023-06-22T10:05:23;3.83;;;3.47;;
53694;SDS011;39588;51.124;7.190;2023-06-22T10:07:50;7.37;;;3.73;;
53694;SDS011;39588;51.124;7.190;2023-06-22T10:10:15;4.50;;;3.53;;
53694;SDS011;39588;51.124;7.190;2023-06-22T10:12:47;3.40;;;3.10;;
53694;SDS011;39588;51.124;7.190;2023-06-22T10:15:21;4.67;;;3.60;;
53694;SDS011;39588;51.124;7.190;2023-06-22T10:17:47;3.60;;;2.93;;
53694;SDS011;39588;51.124;7.190;2023-06-22T10:20:13;4.03;;;3.30;;
53694;SDS011;39588;51.124;7.190;2023-06-22T10:22:40;4.97;;;3.33;;
53694;SDS011;39588;51.124;7.190;2023-06-22T10:25:07;8.77;;;3.73;;
53694;SDS011;39588;51.124;7.190;2023-06-22T10:27:33;4.50;;;3.37;;
53694;SDS011;39588;51.124;7.190;2023-06-22T10:29:58;3.80;;;3.30;;
53694;SDS011;39588;51.124;7.190;2023-06-22T10:32:25;5.83;;;3.10;;
53694;SDS011;39588;51.124;7.190;2023-06-22T10:34:50;3.17;;;2.87;;
53694;SDS011;39588;51.124;7.190;2023-06-22T10:37:16;3.97;;;3.47;;
53694;SDS011;39588;51.124;7.190;2023-06-22T10:39:42;3.83;;;3.30;;
53694;SDS011;39588;51.124;7.190;2023-06-22T10:42:07;4.83;;;3.40;;
53694;SDS011;39588;51.124;7.190;2023-06-22T10:44:33;3.23;;;2.90;;
53694;SDS011;39588;51.124;7.190;2023-06-22T10:46:59;15.53;;;4.07;;
53694;SDS011;39588;51.124;7.190;2023-06-22T10:49:25;4.13;;;2.97;;
53694;SDS011;39588;51.124;7.190;2023-06-22T10:51:50;6.07;;;3.50;;
53694;SDS011;39588;51.124;7.190;2023-06-22T10:54:16;7.40;;;3.80;;
53694;SDS011;39588;51.124;7.190;2023-06-22T10:56:44;5.77;;;3.90;;
53694;SDS011;39588;51.124;7.190;2023-06-22T10:59:09;6.07;;;4.23;;
53694;SDS011;39588;51.124;7.190;2023-06-22T11:01:35;5.57;;;3.73;;
53694;SDS011;39588;51.124;7.190;2023-06-22T11:04:02;7.27;;;4.10;;
53694;SDS011;39588;51.124;7.190;2023-06-22T11:06:28;12.97;;;4.63;;
53694;SDS011;39588;51.124;7.190;2023-06-22T11:08:54;5.93;;;3.97;;
53694;SDS011;39588;51.124;7.190;2023-06-22T11:11:20;7.73;;;4.90;;
53694;SDS011;39588;51.124;7.190;2023-06-22T11:13:45;10.77;;;5.43;;
53694;SDS011;39588;51.124;7.190;2023-06-22T11:16:11;14.03;;;5.03;;
53694;SDS011;39588;51.124;7.190;2023-06-22T11:18:36;5.70;;;3.90;;
53694;SDS011;39588;51.124;7.190;2023-06-22T11:21:02;13.30;;;4.83;;
53694;SDS011;39588;51.124;7.190;2023-06-22T11:23:28;9.97;;;4.90;;
53694;SDS011;39588;51.124;7.190;2023-06-22T11:25:55;8.00;;;4.50;;
53694;SDS011;39588;51.124;7.190;2023-06-22T11:28:20;7.93;;;4.23;;
53694;SDS011;39588;51.124;7.190;2023-06-22T11:30:46;9.87;;;5.00;;
53694;SDS011;39588;51.124;7.190;2023-06-22T11:33:12;12.10;;;5.23;;
53694;SDS011;39588;51.124;7.190;2023-06-22T11:35:38;8.27;;;4.80;;
53694;SDS011;39588;51.124;7.190;2023-06-22T11:38:03;6.00;;;4.70;;
53694;SDS011;39588;51.124;7.190;2023-06-22T11:40:30;8.37;;;4.77;;
53694;SDS011;39588;51.124;7.190;2023-06-22T11:42:56;8.60;;;5.80;;
53694;SDS011;39588;51.124;7.190;2023-06-22T11:45:21;6.93;;;4.60;;
53694;SDS011;39588;51.124;7.190;2023-06-22T11:47:47;5.60;;;4.43;;
53694;SDS011;39588;51.124;7.190;2023-06-22T11:50:14;7.37;;;4.93;;
53694;SDS011;39588;51.124;7.190;2023-06-22T11:52:39;8.57;;;3.87;;
53694;SDS011;39588;51.124;7.190;2023-06-22T11:55:06;6.90;;;3.87;;
53694;SDS011;39588;51.124;7.190;2023-06-22T11:57:38;6.87;;;4.63;;
53694;SDS011;39588;51.124;7.190;2023-06-22T12:00:18;6.03;;;4.70;;
53694;SDS011;39588;51.124;7.190;2023-06-22T12:02:44;5.67;;;4.67;;
53694;SDS011;39588;51.124;7.190;2023-06-22T12:05:10;10.43;;;4.80;;
53694;SDS011;39588;51.124;7.190;2023-06-22T12:07:37;5.57;;;4.47;;
53694;SDS011;39588;51.124;7.190;2023-06-22T12:10:03;6.43;;;4.70;;
53694;SDS011;39588;51.124;7.190;2023-06-22T12:12:29;7.57;;;5.00;;
53694;SDS011;39588;51.124;7.190;2023-06-22T12:14:55;9.37;;;4.33;;
53694;SDS011;39588;51.124;7.190;2023-06-22T12:17:20;5.77;;;4.27;;
53694;SDS011;39588;51.124;7.190;2023-06-22T12:19:46;7.37;;;4.07;;
53694;SDS011;39588;51.124;7.190;2023-06-22T12:22:12;3.13;;;2.63;;
53694;SDS011;39588;51.124;7.190;2023-06-22T12:24:38;3.20;;;3.00;;
53694;SDS011;39588;51.124;7.190;2023-06-22T12:27:04;6.40;;;2.83;;
53694;SDS011;39588;51.124;7.190;2023-06-22T12:29:30;3.97;;;3.13;;
53694;SDS011;39588;51.124;7.190;2023-06-22T12:31:56;10.83;;;3.37;;
53694;SDS011;39588;51.124;7.190;2023-06-22T12:34:22;3.57;;;2.50;;
53694;SDS011;39588;51.124;7.190;2023-06-22T12:36:48;9.40;;;3.53;;
53694;SDS011;39588;51.124;7.190;2023-06-22T12:39:14;3.57;;;3.27;;
53694;SDS011;39588;51.124;7.190;2023-06-22T12:41:40;4.43;;;3.17;;
53694;SDS011;39588;51.124;7.190;2023-06-22T12:44:06;5.07;;;3.30;;
53694;SDS011;39588;51.124;7.190;2023-06-22T12:46:31;2.50;;;2.30;;
53694;SDS011;39588;51.124;7.190;2023-06-22T12:49:02;2.87;;;2.67;;
53694;SDS011;39588;51.124;7.190;2023-06-22T12:51:29;2.80;;;2.53;;
53694;SDS011;39588;51.124;7.190;2023-06-22T12:53:55;2.77;;;2.47;;
53694;SDS011;39588;51.124;7.190;2023-06-22T12:56:20;1.90;;;1.80;;
53694;SDS011;39588;51.124;7.190;2023-06-22T12:58:46;2.40;;;2.10;;
53694;SDS011;39588;51.124;7.190;2023-06-22T13:01:12;1.77;;;1.67;;
53694;SDS011;39588;51.124;7.190;2023-06-22T13:03:38;1.60;;;1.50;;
53694;SDS011;39588;51.124;7.190;2023-06-22T13:06:04;2.30;;;2.00;;
53694;SDS011;39588;51.124;7.190;2023-06-22T13:08:30;3.30;;;1.80;;
53694;SDS011;39588;51.124;7.190;2023-06-22T13:10:56;2.97;;;2.00;;
53694;SDS011;39588;51.124;7.190;2023-06-22T13:13:25;4.77;;;3.00;;
53694;SDS011;39588;51.124;7.190;2023-06-22T13:15:52;3.90;;;3.47;;
53694;SDS011;39588;51.124;7.190;2023-06-22T13:18:19;3.80;;;3.40;;
53694;SDS011;39588;51.124;7.190;2023-06-22T13:20:44;6.83;;;3.43;;
53694;SDS011;39588;51.124;7.190;2023-06-22T13:23:10;4.23;;;3.60;;
53694;SDS011;39588;51.124;7.190;2023-06-22T13:25:36;6.13;;;4.13;;
53694;SDS011;39588;51.124;7.190;2023-06-22T13:28:03;4.53;;;3.07;;
53694;SDS011;39588;51.124;7.190;2023-06-22T13:30:29;6.60;;;3.10;;
53694;SDS011;39588;51.124;7.190;2023-06-22T13:32:55;2.70;;;2.50;;
53694;SDS011;39588;51.124;7.190;2023-06-22T13:35:21;5.87;;;3.70;;
53694;SDS011;39588;51.124;7.190;2023-06-22T13:37:47;2.87;;;2.20;;
53694;SDS011;39588;51.124;7.190;2023-06-22T13:40:13;2.80;;;2.50;;
53694;SDS011;39588;51.124;7.190;2023-06-22T13:42:39;4.83;;;2.70;;
53694;SDS011;39588;51.124;7.190;2023-06-22T13:45:06;3.00;;;2.37;;
53694;SDS011;39588;51.124;7.190;2023-06-22T13:47:32;2.63;;;2.43;;
53694;SDS011;39588;51.124;7.190;2023-06-22T13:49:58;2.40;;;2.20;;
53694;SDS011;39588;51.124;7.190;2023-06-22T13:52:24;2.50;;;2.30;;
53694;SDS011;39588;51.124;7.190;2023-06-22T13:54:50;2.10;;;1.80;;
53694;SDS011;39588;51.124;7.190;2023-06-22T13:57:15;2.03;;;1.93;;
53694;SDS011;39588;51.124;7.190;2023-06-22T13:59:41;2.00;;;1.80;;
53694;SDS011;39588;51.124;7.190;2023-06-22T14:02:07;1.77;;;1.67;;
53694;SDS011;39588;51.124;7.190;2023-06-22T14:04:33;3.00;;;1.80;;
53694;SDS011;39588;51.124;7.190;2023-06-22T14:06:59;1.93;;;1.73;;
53694;SDS011;39588;51.124;7.190;2023-06-22T14:09:25;4.40;;;2.00;;
53694;SDS011;39588;51.124;7.190;2023-06-22T14:11:50;2.20;;;2.00;;
53694;SDS011;39588;51.124;7.190;2023-06-22T14:14:16;2.13;;;1.93;;
53694;SDS011;39588;51.124;7.190;2023-06-22T14:16:42;2.37;;;2.10;;
53694;SDS011;39588;51.124;7.190;2023-06-22T14:19:08;1.90;;;1.80;;
53694;SDS011;39588;51.124;7.190;2023-06-22T14:21:34;3.43;;;2.40;;
53694;SDS011;39588;51.124;7.190;2023-06-22T14:24:00;2.20;;;2.10;;
53694;SDS011;39588;51.124;7.190;2023-06-22T14:26:25;3.73;;;2.70;;
53694;SDS011;39588;51.124;7.190;2023-06-22T14:28:51;2.23;;;2.13;;
53694;SDS011;39588;51.124;7.190;2023-06-22T14:31:18;2.50;;;2.20;;
53694;SDS011;39588;51.124;7.190;2023-06-22T14:33:48;3.07;;;2.77;;
53694;SDS011;39588;51.124;7.190;2023-06-22T14:36:15;4.43;;;2.50;;
53694;SDS011;39588;51.124;7.190;2023-06-22T14:38:42;6.13;;;2.63;;
53694;SDS011;39588;51.124;7.190;2023-06-22T14:41:08;4.57;;;3.10;;
53694;SDS011;39588;51.124;7.190;2023-06-22T14:43:34;3.63;;;2.97;;
53694;SDS011;39588;51.124;7.190;2023-06-22T14:46:00;6.43;;;3.20;;
53694;SDS011;39588;51.124;7.190;2023-06-22T14:48:26;7.77;;;3.37;;
53694;SDS011;39588;51.124;7.190;2023-06-22T14:50:52;8.07;;;3.73;;
53694;SDS011;39588;51.124;7.190;2023-06-22T14:53:19;6.07;;;3.30;;
53694;SDS011;39588;51.124;7.190;2023-06-22T14:55:45;3.80;;;2.93;;